Historique des mesures à Cassis (13260), France
Quotidien Résumé Mars 28, 2017 Unités:  Métrique    US   Métrique/US
« Précédent (Jour)
Suivant (Jour) »
Quotidien Hebdomadaire Mensuel Annuel Période au choix
  Maximum: Minimum: Moyenne:
Température: TemperatureC °C 11.3 °C 13.8 °C
Point de rosée: DewpointC °C 4.2 °C 6.9 °C
Humidité: Humidity % 44 % 61 %
Vitesse du vent: 0 km/h 0 km/h 9.8 km/h
Rafales: 0 km/h - -
Vent:- - SSE
Pression: PressurehPa hPa 1020.2 hPa -
Précipitations: 0.0 mm    
Historical Graphs
 
 
Mesures pour : Mars 28, 2017
Heure Temperature Point de rosée Pression Vent Vitesse du vent Rafales Humidité Pluie (par heure) Conditions
TemperatureC °C DewpointC °C PressurehPa hPa Calm     Humidity % HourlyPrecipMM mm SoftwareType W/m2
00:11 12.1 °C 7.4 °C 1020.9 hPa NW 12.2 km/h 19.2 km/h 73 % 0.0 mm open2300-1.11 W/m2
01:11 11.8 °C 7.7 °C 1021.2 hPa Calm   8 km/h 76 % 0.0 mm open2300-1.11 W/m2
02:11 11.4 °C 7.3 °C 1021.2 hPa North 4.2 km/h 8 km/h 76 % 0.0 mm open2300-1.11 W/m2
03:11 11.3 °C 7.4 °C 1021.2 hPa Calm   2.3 km/h 77 % 0.0 mm open2300-1.11 W/m2
04:11 11.3 °C 7.6 °C 1020.9 hPa North 4.2 km/h 5.6 km/h 78 % 0.0 mm open2300-1.11 W/m2
05:11 11.9 °C 8.0 °C 1020.9 hPa North 4.7 km/h 4.7 km/h 77 % 0.0 mm open2300-1.11 W/m2
06:11 12.3 °C 8.2 °C 1021.2 hPa North 6.9 km/h 6.9 km/h 76 % 0.0 mm open2300-1.11 W/m2
07:11 12.3 °C 7.6 °C 1020.9 hPa Calm   1.8 km/h 73 % 0.0 mm open2300-1.11 W/m2
08:11 11.6 °C 7.3 °C 1021.6 hPa North 2.3 km/h 9.8 km/h 75 % 0.0 mm open2300-1.11 W/m2
09:11 13.1 °C 8.3 °C 1021.9 hPa Calm   2.9 km/h 73 % 0.0 mm open2300-1.11 W/m2
10:11 14.4 °C 7.7 °C 1021.9 hPa NNW 7.6 km/h 13.2 km/h 64 % 0.0 mm open2300-1.11 W/m2
11:11 15.6 °C 7.3 °C 1022.2 hPa North 8.9 km/h 12.2 km/h 58 % 0.0 mm open2300-1.11 W/m2
12:11 17.1 °C 8.2 °C 1022.2 hPa WNW 9.3 km/h 25.4 km/h 56 % 0.0 mm open2300-1.11 W/m2
13:11 17.8 °C 8.1 °C 1022.2 hPa NNW 29.5 km/h 32.3 km/h 53 % 0.0 mm open2300-1.11 W/m2
14:11 18.2 °C 7.6 °C 1021.6 hPa North 18.7 km/h 31.9 km/h 50 % 0.0 mm open2300-1.11 W/m2
15:11 17.8 °C 7.8 °C 1021.2 hPa North 20.9 km/h 35.2 km/h 52 % 0.0 mm open2300-1.11 W/m2
16:11 17.9 °C 7.6 °C 1020.5 hPa WNW 16.3 km/h 33.6 km/h 51 % 0.0 mm open2300-1.11 W/m2
17:11 17.8 °C 6.6 °C 1020.5 hPa Calm   34.8 km/h 48 % 0.0 mm open2300-1.11 W/m2
18:11 17.3 °C 4.8 °C 1020.2 hPa WNW 27.2 km/h 27.2 km/h 44 % 0.0 mm open2300-1.11 W/m2
19:11 16.2 °C 4.2 °C 1020.5 hPa WNW 36 km/h 36 km/h 45 % 0.0 mm open2300-1.11 W/m2
20:11 14.9 °C 5.9 °C 1020.5 hPa WNW 21.6 km/h 22.5 km/h 55 % 0.0 mm open2300-1.11 W/m2
21:11 14.5 °C 6.3 °C 1020.9 hPa NW 13.2 km/h 24.3 km/h 58 % 0.0 mm open2300-1.11 W/m2
22:11 13.8 °C 6.4 °C 1021.2 hPa Calm     61 % 0.0 mm open2300-1.11 W/m2
23:11 13.1 °C 6.2 °C 1021.2 hPa North 3.4 km/h 3.4 km/h 63 % 0.0 mm open2300-1.11 W/m2
Observations météo à CASSIS
WU-History script by Weather Underground - 1 mb